sensor_id;sensor_type;location;lat;lon;timestamp;P1;durP1;ratioP1;P2;durP2;ratioP2
71867;SDS011;59738;48.324;14.230;2022-11-15T00:01:45;13.68;;;7.10;;
71867;SDS011;59738;48.324;14.230;2022-11-15T00:04:32;13.35;;;6.75;;
71867;SDS011;59738;48.324;14.230;2022-11-15T00:07:18;12.30;;;5.37;;
71867;SDS011;59738;48.324;14.230;2022-11-15T00:10:04;10.95;;;5.50;;
71867;SDS011;59738;48.324;14.230;2022-11-15T00:12:52;9.63;;;4.90;;
71867;SDS011;59738;48.324;14.230;2022-11-15T00:15:38;13.23;;;5.22;;
71867;SDS011;59738;48.324;14.230;2022-11-15T00:18:26;12.95;;;6.80;;
71867;SDS011;59738;48.324;14.230;2022-11-15T00:21:13;13.93;;;6.97;;
71867;SDS011;59738;48.324;14.230;2022-11-15T00:24:00;15.30;;;8.07;;
71867;SDS011;59738;48.324;14.230;2022-11-15T00:26:46;13.93;;;6.82;;
71867;SDS011;59738;48.324;14.230;2022-11-15T00:29:33;9.95;;;5.40;;
71867;SDS011;59738;48.324;14.230;2022-11-15T00:32:18;13.13;;;6.00;;
71867;SDS011;59738;48.324;14.230;2022-11-15T00:35:04;15.33;;;7.27;;
71867;SDS011;59738;48.324;14.230;2022-11-15T00:37:53;11.40;;;6.63;;
71867;SDS011;59738;48.324;14.230;2022-11-15T00:40:39;16.85;;;7.43;;
71867;SDS011;59738;48.324;14.230;2022-11-15T00:43:25;12.82;;;6.35;;
71867;SDS011;59738;48.324;14.230;2022-11-15T00:46:11;12.93;;;6.57;;
71867;SDS011;59738;48.324;14.230;2022-11-15T00:48:57;12.30;;;5.90;;
71867;SDS011;59738;48.324;14.230;2022-11-15T00:51:43;13.18;;;6.15;;
71867;SDS011;59738;48.324;14.230;2022-11-15T00:54:31;10.48;;;5.38;;
71867;SDS011;59738;48.324;14.230;2022-11-15T00:57:16;13.75;;;6.18;;
71867;SDS011;59738;48.324;14.230;2022-11-15T01:00:03;13.25;;;6.45;;
71867;SDS011;59738;48.324;14.230;2022-11-15T01:02:50;14.47;;;6.33;;
71867;SDS011;59738;48.324;14.230;2022-11-15T01:05:36;15.88;;;7.30;;
71867;SDS011;59738;48.324;14.230;2022-11-15T01:08:22;13.60;;;7.05;;
71867;SDS011;59738;48.324;14.230;2022-11-15T01:11:11;20.90;;;9.10;;
71867;SDS011;59738;48.324;14.230;2022-11-15T01:13:57;18.65;;;9.48;;
71867;SDS011;59738;48.324;14.230;2022-11-15T01:16:44;23.53;;;9.87;;
71867;SDS011;59738;48.324;14.230;2022-11-15T01:19:30;21.42;;;10.25;;
71867;SDS011;59738;48.324;14.230;2022-11-15T01:22:16;24.00;;;10.18;;
71867;SDS011;59738;48.324;14.230;2022-11-15T01:25:02;20.27;;;9.40;;
71867;SDS011;59738;48.324;14.230;2022-11-15T01:27:50;21.27;;;8.98;;
71867;SDS011;59738;48.324;14.230;2022-11-15T01:30:36;19.03;;;8.60;;
71867;SDS011;59738;48.324;14.230;2022-11-15T01:33:22;21.10;;;8.38;;
71867;SDS011;59738;48.324;14.230;2022-11-15T01:36:10;15.32;;;7.53;;
71867;SDS011;59738;48.324;14.230;2022-11-15T01:38:57;13.30;;;5.95;;
71867;SDS011;59738;48.324;14.230;2022-11-15T01:41:44;11.30;;;6.38;;
71867;SDS011;59738;48.324;14.230;2022-11-15T01:44:41;13.73;;;6.27;;
71867;SDS011;59738;48.324;14.230;2022-11-15T01:47:30;11.15;;;5.78;;
71867;SDS011;59738;48.324;14.230;2022-11-15T01:50:17;10.27;;;5.85;;
71867;SDS011;59738;48.324;14.230;2022-11-15T01:53:05;12.48;;;6.63;;
71867;SDS011;59738;48.324;14.230;2022-11-15T01:55:52;16.05;;;7.30;;
71867;SDS011;59738;48.324;14.230;2022-11-15T01:58:38;12.47;;;6.80;;
71867;SDS011;59738;48.324;14.230;2022-11-15T02:01:26;13.15;;;6.85;;
71867;SDS011;59738;48.324;14.230;2022-11-15T02:04:15;12.00;;;6.80;;
71867;SDS011;59738;48.324;14.230;2022-11-15T02:07:02;11.82;;;6.40;;
71867;SDS011;59738;48.324;14.230;2022-11-15T02:09:49;12.60;;;6.43;;
71867;SDS011;59738;48.324;14.230;2022-11-15T02:12:35;8.80;;;5.37;;
71867;SDS011;59738;48.324;14.230;2022-11-15T02:15:22;9.50;;;5.43;;
71867;SDS011;59738;48.324;14.230;2022-11-15T02:18:17;10.48;;;6.07;;
71867;SDS011;59738;48.324;14.230;2022-11-15T02:21:11;12.27;;;5.57;;
71867;SDS011;59738;48.324;14.230;2022-11-15T02:30:40;9.73;;;5.22;;
71867;SDS011;59738;48.324;14.230;2022-11-15T02:33:30;8.57;;;4.82;;
71867;SDS011;59738;48.324;14.230;2022-11-15T02:36:23;9.38;;;5.03;;
71867;SDS011;59738;48.324;14.230;2022-11-15T02:39:22;9.48;;;5.00;;
71867;SDS011;59738;48.324;14.230;2022-11-15T02:42:13;9.40;;;4.80;;
71867;SDS011;59738;48.324;14.230;2022-11-15T02:45:16;10.82;;;5.05;;
71867;SDS011;59738;48.324;14.230;2022-11-15T02:48:06;10.55;;;5.70;;
71867;SDS011;59738;48.324;14.230;2022-11-15T02:50:53;12.50;;;5.82;;
71867;SDS011;59738;48.324;14.230;2022-11-15T02:53:39;9.70;;;4.70;;
71867;SDS011;59738;48.324;14.230;2022-11-15T02:56:25;12.27;;;5.63;;
71867;SDS011;59738;48.324;14.230;2022-11-15T02:59:13;10.20;;;5.78;;
71867;SDS011;59738;48.324;14.230;2022-11-15T03:02:16;11.48;;;5.25;;
71867;SDS011;59738;48.324;14.230;2022-11-15T03:05:09;10.40;;;5.47;;
71867;SDS011;59738;48.324;14.230;2022-11-15T03:08:02;11.50;;;5.93;;
71867;SDS011;59738;48.324;14.230;2022-11-15T03:10:55;15.37;;;6.87;;
71867;SDS011;59738;48.324;14.230;2022-11-15T03:13:49;11.63;;;6.18;;
71867;SDS011;59738;48.324;14.230;2022-11-15T03:16:40;12.38;;;6.13;;
71867;SDS011;59738;48.324;14.230;2022-11-15T03:19:30;12.70;;;6.13;;
71867;SDS011;59738;48.324;14.230;2022-11-15T03:22:20;12.15;;;6.55;;
71867;SDS011;59738;48.324;14.230;2022-11-15T03:25:08;16.00;;;8.23;;
71867;SDS011;59738;48.324;14.230;2022-11-15T03:27:57;14.20;;;7.72;;
71867;SDS011;59738;48.324;14.230;2022-11-15T03:30:44;13.82;;;7.78;;
71867;SDS011;59738;48.324;14.230;2022-11-15T03:33:31;16.83;;;9.02;;
71867;SDS011;59738;48.324;14.230;2022-11-15T03:36:18;19.80;;;9.88;;
71867;SDS011;59738;48.324;14.230;2022-11-15T03:39:06;13.87;;;8.60;;
71867;SDS011;59738;48.324;14.230;2022-11-15T03:41:56;16.80;;;8.40;;
71867;SDS011;59738;48.324;14.230;2022-11-15T03:44:50;15.30;;;8.32;;
71867;SDS011;59738;48.324;14.230;2022-11-15T03:47:38;17.92;;;8.02;;
71867;SDS011;59738;48.324;14.230;2022-11-15T03:50:26;14.80;;;8.30;;
71867;SDS011;59738;48.324;14.230;2022-11-15T03:53:13;15.97;;;8.07;;
71867;SDS011;59738;48.324;14.230;2022-11-15T03:56:00;13.40;;;7.75;;
71867;SDS011;59738;48.324;14.230;2022-11-15T03:58:46;13.82;;;7.40;;
71867;SDS011;59738;48.324;14.230;2022-11-15T04:01:33;15.30;;;7.70;;
71867;SDS011;59738;48.324;14.230;2022-11-15T04:04:19;15.05;;;7.43;;
71867;SDS011;59738;48.324;14.230;2022-11-15T04:07:05;11.50;;;6.70;;
71867;SDS011;59738;48.324;14.230;2022-11-15T04:09:51;13.93;;;7.72;;
71867;SDS011;59738;48.324;14.230;2022-11-15T04:12:51;15.88;;;8.25;;
71867;SDS011;59738;48.324;14.230;2022-11-15T04:15:37;13.02;;;7.07;;
71867;SDS011;59738;48.324;14.230;2022-11-15T04:18:23;12.82;;;6.63;;
71867;SDS011;59738;48.324;14.230;2022-11-15T04:21:09;12.77;;;6.23;;
71867;SDS011;59738;48.324;14.230;2022-11-15T04:24:12;12.82;;;7.10;;
71867;SDS011;59738;48.324;14.230;2022-11-15T04:26:58;10.90;;;6.93;;
71867;SDS011;59738;48.324;14.230;2022-11-15T04:29:46;11.65;;;6.20;;
71867;SDS011;59738;48.324;14.230;2022-11-15T04:32:32;14.15;;;6.70;;
71867;SDS011;59738;48.324;14.230;2022-11-15T04:35:18;10.47;;;5.80;;
71867;SDS011;59738;48.324;14.230;2022-11-15T04:38:05;11.35;;;6.38;;
71867;SDS011;59738;48.324;14.230;2022-11-15T04:40:52;11.25;;;6.03;;
71867;SDS011;59738;48.324;14.230;2022-11-15T04:43:38;12.30;;;6.72;;
71867;SDS011;59738;48.324;14.230;2022-11-15T04:46:26;12.95;;;6.82;;
71867;SDS011;59738;48.324;14.230;2022-11-15T04:49:12;11.23;;;5.77;;
71867;SDS011;59738;48.324;14.230;2022-11-15T04:51:58;9.82;;;5.35;;
71867;SDS011;59738;48.324;14.230;2022-11-15T04:54:44;13.35;;;6.13;;
71867;SDS011;59738;48.324;14.230;2022-11-15T04:57:29;12.18;;;5.72;;
71867;SDS011;59738;48.324;14.230;2022-11-15T05:00:16;11.75;;;6.63;;
71867;SDS011;59738;48.324;14.230;2022-11-15T05:03:04;19.37;;;7.83;;
71867;SDS011;59738;48.324;14.230;2022-11-15T05:06:08;19.30;;;8.50;;
71867;SDS011;59738;48.324;14.230;2022-11-15T05:08:54;21.48;;;9.98;;
71867;SDS011;59738;48.324;14.230;2022-11-15T05:11:41;21.77;;;9.95;;
71867;SDS011;59738;48.324;14.230;2022-11-15T05:14:30;25.52;;;10.95;;
71867;SDS011;59738;48.324;14.230;2022-11-15T05:17:15;24.57;;;12.47;;
71867;SDS011;59738;48.324;14.230;2022-11-15T05:20:03;21.85;;;11.32;;
71867;SDS011;59738;48.324;14.230;2022-11-15T05:22:50;25.17;;;11.85;;
71867;SDS011;59738;48.324;14.230;2022-11-15T05:25:36;25.52;;;11.10;;
71867;SDS011;59738;48.324;14.230;2022-11-15T05:28:22;23.73;;;11.82;;
71867;SDS011;59738;48.324;14.230;2022-11-15T05:31:10;25.37;;;11.77;;
71867;SDS011;59738;48.324;14.230;2022-11-15T05:33:58;25.05;;;11.77;;
71867;SDS011;59738;48.324;14.230;2022-11-15T05:36:46;23.90;;;11.68;;
71867;SDS011;59738;48.324;14.230;2022-11-15T05:39:32;26.38;;;10.63;;
71867;SDS011;59738;48.324;14.230;2022-11-15T05:42:19;22.00;;;10.68;;
71867;SDS011;59738;48.324;14.230;2022-11-15T05:45:06;21.13;;;10.73;;
71867;SDS011;59738;48.324;14.230;2022-11-15T05:47:53;20.48;;;10.32;;
71867;SDS011;59738;48.324;14.230;2022-11-15T05:50:41;23.98;;;10.20;;
71867;SDS011;59738;48.324;14.230;2022-11-15T05:53:30;23.15;;;11.15;;
71867;SDS011;59738;48.324;14.230;2022-11-15T05:56:16;22.42;;;10.50;;
71867;SDS011;59738;48.324;14.230;2022-11-15T05:59:03;20.07;;;9.70;;
71867;SDS011;59738;48.324;14.230;2022-11-15T06:01:50;19.95;;;9.50;;
71867;SDS011;59738;48.324;14.230;2022-11-15T06:04:36;20.73;;;10.52;;
71867;SDS011;59738;48.324;14.230;2022-11-15T06:07:22;19.45;;;10.07;;
71867;SDS011;59738;48.324;14.230;2022-11-15T06:10:10;21.52;;;9.65;;
71867;SDS011;59738;48.324;14.230;2022-11-15T06:12:57;18.27;;;9.80;;
71867;SDS011;59738;48.324;14.230;2022-11-15T06:15:44;19.33;;;9.73;;
71867;SDS011;59738;48.324;14.230;2022-11-15T06:18:31;18.95;;;9.15;;
71867;SDS011;59738;48.324;14.230;2022-11-15T06:21:19;19.80;;;9.55;;
71867;SDS011;59738;48.324;14.230;2022-11-15T06:24:06;20.60;;;10.00;;
71867;SDS011;59738;48.324;14.230;2022-11-15T06:26:54;21.37;;;9.37;;
71867;SDS011;59738;48.324;14.230;2022-11-15T06:29:42;18.23;;;9.68;;
71867;SDS011;59738;48.324;14.230;2022-11-15T06:32:30;18.83;;;8.85;;
71867;SDS011;59738;48.324;14.230;2022-11-15T06:35:16;16.40;;;8.70;;
71867;SDS011;59738;48.324;14.230;2022-11-15T06:38:03;18.00;;;9.23;;
71867;SDS011;59738;48.324;14.230;2022-11-15T06:40:50;16.33;;;8.57;;
71867;SDS011;59738;48.324;14.230;2022-11-15T06:43:37;24.75;;;10.25;;
71867;SDS011;59738;48.324;14.230;2022-11-15T06:46:23;21.30;;;11.52;;
71867;SDS011;59738;48.324;14.230;2022-11-15T06:49:09;22.35;;;10.88;;
71867;SDS011;59738;48.324;14.230;2022-11-15T06:51:55;22.55;;;10.75;;
71867;SDS011;59738;48.324;14.230;2022-11-15T06:54:41;24.97;;;11.67;;
71867;SDS011;59738;48.324;14.230;2022-11-15T06:57:26;25.50;;;12.18;;
71867;SDS011;59738;48.324;14.230;2022-11-15T07:00:15;27.70;;;12.77;;
71867;SDS011;59738;48.324;14.230;2022-11-15T07:03:03;32.70;;;15.82;;
71867;SDS011;59738;48.324;14.230;2022-11-15T07:05:52;33.40;;;15.98;;
71867;SDS011;59738;48.324;14.230;2022-11-15T07:08:38;41.57;;;17.73;;
71867;SDS011;59738;48.324;14.230;2022-11-15T07:11:26;36.40;;;16.52;;
71867;SDS011;59738;48.324;14.230;2022-11-15T07:14:12;37.30;;;16.65;;
71867;SDS011;59738;48.324;14.230;2022-11-15T07:16:59;32.78;;;15.93;;
71867;SDS011;59738;48.324;14.230;2022-11-15T07:19:45;30.48;;;14.52;;
71867;SDS011;59738;48.324;14.230;2022-11-15T07:22:30;24.30;;;12.10;;
71867;SDS011;59738;48.324;14.230;2022-11-15T07:25:16;25.42;;;11.88;;
71867;SDS011;59738;48.324;14.230;2022-11-15T07:28:02;23.77;;;11.95;;
71867;SDS011;59738;48.324;14.230;2022-11-15T07:30:49;23.20;;;9.88;;
71867;SDS011;59738;48.324;14.230;2022-11-15T07:33:36;23.10;;;11.70;;
71867;SDS011;59738;48.324;14.230;2022-11-15T07:36:22;23.63;;;11.60;;
71867;SDS011;59738;48.324;14.230;2022-11-15T07:39:08;25.30;;;10.07;;
71867;SDS011;59738;48.324;14.230;2022-11-15T07:41:55;27.50;;;11.15;;
71867;SDS011;59738;48.324;14.230;2022-11-15T07:44:55;21.48;;;10.80;;
71867;SDS011;59738;48.324;14.230;2022-11-15T07:47:44;20.02;;;9.50;;
71867;SDS011;59738;48.324;14.230;2022-11-15T07:50:32;26.77;;;10.33;;
71867;SDS011;59738;48.324;14.230;2022-11-15T07:53:18;76.60;;;16.67;;
71867;SDS011;59738;48.324;14.230;2022-11-15T07:56:05;48.72;;;15.63;;
71867;SDS011;59738;48.324;14.230;2022-11-15T07:58:51;62.33;;;18.73;;
71867;SDS011;59738;48.324;14.230;2022-11-15T08:01:37;76.90;;;18.80;;
71867;SDS011;59738;48.324;14.230;2022-11-15T08:04:23;88.17;;;22.73;;
71867;SDS011;59738;48.324;14.230;2022-11-15T08:07:10;51.60;;;18.77;;
71867;SDS011;59738;48.324;14.230;2022-11-15T08:09:56;97.80;;;26.20;;
71867;SDS011;59738;48.324;14.230;2022-11-15T08:12:43;69.82;;;26.17;;
71867;SDS011;59738;48.324;14.230;2022-11-15T08:15:29;72.25;;;23.27;;
71867;SDS011;59738;48.324;14.230;2022-11-15T08:18:15;68.13;;;23.97;;
71867;SDS011;59738;48.324;14.230;2022-11-15T08:21:02;70.05;;;25.35;;
71867;SDS011;59738;48.324;14.230;2022-11-15T08:23:50;90.13;;;25.75;;
71867;SDS011;59738;48.324;14.230;2022-11-15T08:26:36;86.63;;;26.95;;
71867;SDS011;59738;48.324;14.230;2022-11-15T08:29:23;88.97;;;28.02;;
71867;SDS011;59738;48.324;14.230;2022-11-15T08:32:08;86.83;;;25.77;;
71867;SDS011;59738;48.324;14.230;2022-11-15T08:34:55;99.28;;;24.75;;
71867;SDS011;59738;48.324;14.230;2022-11-15T08:37:41;88.90;;;28.30;;
71867;SDS011;59738;48.324;14.230;2022-11-15T08:40:29;69.53;;;23.10;;
71867;SDS011;59738;48.324;14.230;2022-11-15T08:43:15;86.45;;;25.70;;
71867;SDS011;59738;48.324;14.230;2022-11-15T08:46:01;86.43;;;27.87;;
71867;SDS011;59738;48.324;14.230;2022-11-15T08:48:47;112.13;;;30.02;;
71867;SDS011;59738;48.324;14.230;2022-11-15T08:51:33;85.97;;;28.73;;
71867;SDS011;59738;48.324;14.230;2022-11-15T08:54:19;89.53;;;25.23;;
71867;SDS011;59738;48.324;14.230;2022-11-15T08:57:07;65.60;;;24.67;;
71867;SDS011;59738;48.324;14.230;2022-11-15T08:59:55;65.30;;;24.80;;
71867;SDS011;59738;48.324;14.230;2022-11-15T09:02:41;58.15;;;22.98;;
71867;SDS011;59738;48.324;14.230;2022-11-15T09:05:27;72.85;;;25.75;;
71867;SDS011;59738;48.324;14.230;2022-11-15T09:08:13;77.13;;;26.63;;
71867;SDS011;59738;48.324;14.230;2022-11-15T09:11:02;78.82;;;30.23;;
71867;SDS011;59738;48.324;14.230;2022-11-15T09:13:50;65.43;;;24.80;;
71867;SDS011;59738;48.324;14.230;2022-11-15T09:16:36;80.93;;;31.88;;
71867;SDS011;59738;48.324;14.230;2022-11-15T09:19:22;79.72;;;28.77;;
71867;SDS011;59738;48.324;14.230;2022-11-15T09:22:08;80.93;;;31.45;;
71867;SDS011;59738;48.324;14.230;2022-11-15T09:24:54;86.50;;;31.92;;
71867;SDS011;59738;48.324;14.230;2022-11-15T09:27:40;77.80;;;27.70;;
71867;SDS011;59738;48.324;14.230;2022-11-15T09:30:27;85.50;;;32.45;;
71867;SDS011;59738;48.324;14.230;2022-11-15T09:33:14;88.90;;;30.67;;
71867;SDS011;59738;48.324;14.230;2022-11-15T09:36:00;90.63;;;33.05;;
71867;SDS011;59738;48.324;14.230;2022-11-15T09:38:46;89.32;;;29.67;;
71867;SDS011;59738;48.324;14.230;2022-11-15T09:41:55;74.77;;;27.23;;
71867;SDS011;59738;48.324;14.230;2022-11-15T09:44:51;84.43;;;29.90;;
71867;SDS011;59738;48.324;14.230;2022-11-15T09:47:54;85.55;;;31.55;;
71867;SDS011;59738;48.324;14.230;2022-11-15T09:50:46;94.50;;;31.08;;
71867;SDS011;59738;48.324;14.230;2022-11-15T09:53:19;91.97;;;32.10;;
71867;SDS011;59738;48.324;14.230;2022-11-15T09:55:59;91.17;;;29.17;;
71867;SDS011;59738;48.324;14.230;2022-11-15T09:58:30;89.22;;;31.50;;
71867;SDS011;59738;48.324;14.230;2022-11-15T10:01:01;93.82;;;32.35;;
71867;SDS011;59738;48.324;14.230;2022-11-15T10:03:35;63.10;;;24.63;;
71867;SDS011;59738;48.324;14.230;2022-11-15T10:06:05;85.80;;;30.65;;
71867;SDS011;59738;48.324;14.230;2022-11-15T10:08:37;79.97;;;26.10;;
71867;SDS011;59738;48.324;14.230;2022-11-15T10:11:15;82.88;;;27.40;;
71867;SDS011;59738;48.324;14.230;2022-11-15T10:13:46;48.72;;;20.98;;
71867;SDS011;59738;48.324;14.230;2022-11-15T10:16:19;81.65;;;30.20;;
71867;SDS011;59738;48.324;14.230;2022-11-15T10:18:55;119.55;;;34.42;;
71867;SDS011;59738;48.324;14.230;2022-11-15T10:21:29;84.67;;;29.70;;
71867;SDS011;59738;48.324;14.230;2022-11-15T10:24:01;94.63;;;34.35;;
71867;SDS011;59738;48.324;14.230;2022-11-15T10:26:28;108.80;;;37.75;;
71867;SDS011;59738;48.324;14.230;2022-11-15T10:28:56;84.82;;;27.80;;
71867;SDS011;59738;48.324;14.230;2022-11-15T10:31:24;87.88;;;29.65;;
71867;SDS011;59738;48.324;14.230;2022-11-15T10:33:58;73.77;;;26.73;;
71867;SDS011;59738;48.324;14.230;2022-11-15T10:36:30;99.63;;;32.60;;
71867;SDS011;59738;48.324;14.230;2022-11-15T10:38:57;100.40;;;33.88;;
71867;SDS011;59738;48.324;14.230;2022-11-15T10:41:32;89.88;;;30.52;;
71867;SDS011;59738;48.324;14.230;2022-11-15T10:44:08;93.82;;;30.48;;
71867;SDS011;59738;48.324;14.230;2022-11-15T10:46:39;118.20;;;35.20;;
71867;SDS011;59738;48.324;14.230;2022-11-15T10:49:13;132.70;;;38.88;;
71867;SDS011;59738;48.324;14.230;2022-11-15T10:51:43;128.45;;;34.80;;
71867;SDS011;59738;48.324;14.230;2022-11-15T10:54:22;136.40;;;40.70;;
71867;SDS011;59738;48.324;14.230;2022-11-15T10:56:55;133.43;;;42.40;;
71867;SDS011;59738;48.324;14.230;2022-11-15T10:59:26;133.10;;;41.33;;
71867;SDS011;59738;48.324;14.230;2022-11-15T11:01:57;134.90;;;40.63;;
71867;SDS011;59738;48.324;14.230;2022-11-15T11:04:27;118.35;;;40.15;;
71867;SDS011;59738;48.324;14.230;2022-11-15T11:06:55;109.88;;;37.40;;
71867;SDS011;59738;48.324;14.230;2022-11-15T11:09:30;117.78;;;38.90;;
71867;SDS011;59738;48.324;14.230;2022-11-15T11:11:59;112.37;;;36.00;;
71867;SDS011;59738;48.324;14.230;2022-11-15T11:14:27;101.13;;;35.38;;
71867;SDS011;59738;48.324;14.230;2022-11-15T11:17:01;92.18;;;34.30;;
71867;SDS011;59738;48.324;14.230;2022-11-15T11:19:52;84.45;;;30.77;;
71867;SDS011;59738;48.324;14.230;2022-11-15T11:22:26;77.97;;;31.45;;
71867;SDS011;59738;48.324;14.230;2022-11-15T11:25:04;87.80;;;32.93;;
71867;SDS011;59738;48.324;14.230;2022-11-15T11:27:42;91.65;;;33.88;;
71867;SDS011;59738;48.324;14.230;2022-11-15T11:30:14;107.90;;;37.83;;
71867;SDS011;59738;48.324;14.230;2022-11-15T11:32:49;90.50;;;32.45;;
71867;SDS011;59738;48.324;14.230;2022-11-15T11:35:24;92.75;;;33.88;;
71867;SDS011;59738;48.324;14.230;2022-11-15T11:37:59;101.97;;;31.90;;
71867;SDS011;59738;48.324;14.230;2022-11-15T11:40:39;82.80;;;30.83;;
71867;SDS011;59738;48.324;14.230;2022-11-15T11:43:12;74.55;;;28.23;;
71867;SDS011;59738;48.324;14.230;2022-11-15T11:45:56;59.45;;;23.08;;
71867;SDS011;59738;48.324;14.230;2022-11-15T11:48:39;56.50;;;22.15;;
71867;SDS011;59738;48.324;14.230;2022-11-15T11:51:13;55.20;;;21.43;;
71867;SDS011;59738;48.324;14.230;2022-11-15T11:53:46;47.33;;;18.85;;
71867;SDS011;59738;48.324;14.230;2022-11-15T11:56:23;41.45;;;17.05;;
71867;SDS011;59738;48.324;14.230;2022-11-15T11:58:54;36.55;;;18.20;;
71867;SDS011;59738;48.324;14.230;2022-11-15T12:01:25;36.65;;;16.73;;
71867;SDS011;59738;48.324;14.230;2022-11-15T12:03:56;31.87;;;15.53;;
71867;SDS011;59738;48.324;14.230;2022-11-15T12:06:30;29.17;;;13.63;;
71867;SDS011;59738;48.324;14.230;2022-11-15T12:09:00;30.27;;;13.23;;
71867;SDS011;59738;48.324;14.230;2022-11-15T12:11:34;24.88;;;10.75;;
71867;SDS011;59738;48.324;14.230;2022-11-15T12:14:03;25.33;;;12.13;;
71867;SDS011;59738;48.324;14.230;2022-11-15T12:16:44;25.07;;;11.70;;
71867;SDS011;59738;48.324;14.230;2022-11-15T12:19:11;23.85;;;12.20;;
71867;SDS011;59738;48.324;14.230;2022-11-15T12:21:41;23.25;;;11.88;;
71867;SDS011;59738;48.324;14.230;2022-11-15T12:24:12;21.33;;;10.85;;
71867;SDS011;59738;48.324;14.230;2022-11-15T12:26:42;24.67;;;12.65;;
71867;SDS011;59738;48.324;14.230;2022-11-15T12:29:16;24.03;;;11.80;;
71867;SDS011;59738;48.324;14.230;2022-11-15T12:31:48;28.70;;;12.00;;
71867;SDS011;59738;48.324;14.230;2022-11-15T12:40:17;26.90;;;12.20;;
71867;SDS011;59738;48.324;14.230;2022-11-15T12:42:59;29.20;;;12.53;;
71867;SDS011;59738;48.324;14.230;2022-11-15T12:45:45;28.27;;;13.00;;
71867;SDS011;59738;48.324;14.230;2022-11-15T12:57:29;33.57;;;14.07;;
71867;SDS011;59738;48.324;14.230;2022-11-15T12:59:59;33.78;;;12.75;;
71867;SDS011;59738;48.324;14.230;2022-11-15T13:02:31;30.10;;;13.38;;
71867;SDS011;59738;48.324;14.230;2022-11-15T13:08:34;31.77;;;13.13;;
71867;SDS011;59738;48.324;14.230;2022-11-15T13:17:24;29.42;;;12.40;;
71867;SDS011;59738;48.324;14.230;2022-11-15T13:19:58;36.10;;;12.57;;
71867;SDS011;59738;48.324;14.230;2022-11-15T13:22:38;32.95;;;13.20;;
71867;SDS011;59738;48.324;14.230;2022-11-15T13:25:36;28.47;;;13.03;;
71867;SDS011;59738;48.324;14.230;2022-11-15T13:28:32;28.15;;;12.27;;
71867;SDS011;59738;48.324;14.230;2022-11-15T13:31:03;30.88;;;13.05;;
71867;SDS011;59738;48.324;14.230;2022-11-15T13:33:42;27.95;;;13.40;;
71867;SDS011;59738;48.324;14.230;2022-11-15T13:36:12;28.50;;;13.20;;
71867;SDS011;59738;48.324;14.230;2022-11-15T13:38:41;29.13;;;13.63;;
71867;SDS011;59738;48.324;14.230;2022-11-15T13:41:17;31.55;;;13.25;;
71867;SDS011;59738;48.324;14.230;2022-11-15T13:43:48;29.90;;;12.23;;
71867;SDS011;59738;48.324;14.230;2022-11-15T13:46:20;27.35;;;12.57;;
71867;SDS011;59738;48.324;14.230;2022-11-15T13:49:02;28.95;;;13.48;;
71867;SDS011;59738;48.324;14.230;2022-11-15T13:51:37;25.83;;;12.53;;
71867;SDS011;59738;48.324;14.230;2022-11-15T13:54:14;27.95;;;12.77;;
71867;SDS011;59738;48.324;14.230;2022-11-15T13:56:45;30.27;;;12.95;;
71867;SDS011;59738;48.324;14.230;2022-11-15T13:59:17;26.73;;;12.63;;
71867;SDS011;59738;48.324;14.230;2022-11-15T14:01:50;32.47;;;13.05;;
71867;SDS011;59738;48.324;14.230;2022-11-15T14:04:18;27.37;;;12.63;;
71867;SDS011;59738;48.324;14.230;2022-11-15T14:06:49;30.60;;;13.60;;
71867;SDS011;59738;48.324;14.230;2022-11-15T14:09:25;43.17;;;13.80;;
71867;SDS011;59738;48.324;14.230;2022-11-15T14:11:59;32.25;;;13.00;;
71867;SDS011;59738;48.324;14.230;2022-11-15T14:14:29;35.53;;;12.07;;
71867;SDS011;59738;48.324;14.230;2022-11-15T14:17:00;35.90;;;11.53;;
71867;SDS011;59738;48.324;14.230;2022-11-15T14:19:36;35.38;;;11.80;;
71867;SDS011;59738;48.324;14.230;2022-11-15T14:22:08;31.63;;;11.13;;
71867;SDS011;59738;48.324;14.230;2022-11-15T14:24:39;31.77;;;12.82;;
71867;SDS011;59738;48.324;14.230;2022-11-15T14:27:20;33.63;;;12.68;;
71867;SDS011;59738;48.324;14.230;2022-11-15T14:29:51;51.17;;;12.57;;
71867;SDS011;59738;48.324;14.230;2022-11-15T14:32:20;33.80;;;13.27;;
71867;SDS011;59738;48.324;14.230;2022-11-15T14:34:53;33.25;;;13.70;;
71867;SDS011;59738;48.324;14.230;2022-11-15T14:37:25;67.53;;;13.93;;
71867;SDS011;59738;48.324;14.230;2022-11-15T14:39:53;49.65;;;13.85;;
71867;SDS011;59738;48.324;14.230;2022-11-15T14:42:23;90.03;;;13.13;;
71867;SDS011;59738;48.324;14.230;2022-11-15T14:44:55;62.88;;;15.38;;
71867;SDS011;59738;48.324;14.230;2022-11-15T14:47:22;55.15;;;15.32;;
71867;SDS011;59738;48.324;14.230;2022-11-15T14:49:52;65.57;;;16.95;;
71867;SDS011;59738;48.324;14.230;2022-11-15T14:52:32;68.75;;;15.48;;
71867;SDS011;59738;48.324;14.230;2022-11-15T14:55:01;64.87;;;13.80;;
71867;SDS011;59738;48.324;14.230;2022-11-15T14:57:31;118.90;;;15.52;;
71867;SDS011;59738;48.324;14.230;2022-11-15T15:00:03;158.30;;;16.50;;
71867;SDS011;59738;48.324;14.230;2022-11-15T15:02:41;116.97;;;14.63;;
71867;SDS011;59738;48.324;14.230;2022-11-15T15:05:14;55.15;;;15.32;;
71867;SDS011;59738;48.324;14.230;2022-11-15T15:07:44;86.40;;;13.33;;
71867;SDS011;59738;48.324;14.230;2022-11-15T15:10:12;105.97;;;14.43;;
71867;SDS011;59738;48.324;14.230;2022-11-15T15:12:41;145.75;;;16.08;;
71867;SDS011;59738;48.324;14.230;2022-11-15T15:15:15;85.18;;;12.73;;
71867;SDS011;59738;48.324;14.230;2022-11-15T15:17:44;102.85;;;13.45;;
71867;SDS011;59738;48.324;14.230;2022-11-15T15:20:12;93.27;;;13.10;;
71867;SDS011;59738;48.324;14.230;2022-11-15T15:22:39;109.93;;;12.70;;
71867;SDS011;59738;48.324;14.230;2022-11-15T15:25:14;51.33;;;12.20;;
71867;SDS011;59738;48.324;14.230;2022-11-15T15:27:47;48.92;;;13.40;;
71867;SDS011;59738;48.324;14.230;2022-11-15T15:30:16;87.20;;;13.93;;
71867;SDS011;59738;48.324;14.230;2022-11-15T15:32:44;112.73;;;12.77;;
71867;SDS011;59738;48.324;14.230;2022-11-15T15:35:12;96.68;;;12.00;;
71867;SDS011;59738;48.324;14.230;2022-11-15T15:37:40;124.50;;;15.75;;
71867;SDS011;59738;48.324;14.230;2022-11-15T15:40:10;168.73;;;15.93;;
71867;SDS011;59738;48.324;14.230;2022-11-15T15:42:43;93.88;;;13.52;;
71867;SDS011;59738;48.324;14.230;2022-11-15T15:45:11;94.07;;;13.03;;
71867;SDS011;59738;48.324;14.230;2022-11-15T15:47:45;126.40;;;15.85;;
71867;SDS011;59738;48.324;14.230;2022-11-15T15:50:20;96.38;;;13.80;;
71867;SDS011;59738;48.324;14.230;2022-11-15T15:52:49;84.50;;;13.63;;
71867;SDS011;59738;48.324;14.230;2022-11-15T15:55:19;84.25;;;12.50;;
71867;SDS011;59738;48.324;14.230;2022-11-15T15:57:48;54.47;;;12.97;;
71867;SDS011;59738;48.324;14.230;2022-11-15T16:00:17;80.13;;;13.75;;
71867;SDS011;59738;48.324;14.230;2022-11-15T16:02:46;95.63;;;13.00;;
71867;SDS011;59738;48.324;14.230;2022-11-15T16:05:14;90.47;;;15.45;;
71867;SDS011;59738;48.324;14.230;2022-11-15T16:07:43;97.93;;;13.63;;
71867;SDS011;59738;48.324;14.230;2022-11-15T16:10:24;113.83;;;14.50;;